< < Back
Terminal Aerodrome Forecast


Current Version              Previous Versions:   1  2  3  4  5  6  7  8  9  

Terminal Aerodrome Forecast

271
FTUS42 KTAE 261720
TAFVLD
TAF
KVLD 261720Z 2618/2718 07009KT P6SM SCT050
     FM270000 08005KT P6SM FEW250=

Latest METAR

007
SAUS70 KWBC 270100 RRB
MTRVLD
METAR KVLD 270053Z 00000KT 10SM CLR 27/23 A3003 RMK AO2 SLP174
T02720228


USA.gov is the U.S. government's official web portal to all federal, state and local government web resources and services.